Time;durP1;ratioP1;P1;durP2;ratioP2;P2;SDS_P1;SDS_P2;PMS_P1;PMS_P2;Temp;Humidity;BMP_temperature;BMP_pressure;BME280_temperature;BME280_humidity;BME280_pressure;Samples;Min_cycle;Max_cycle;Signal;HPM_P1;HPM_P2
2023/08/10 00:00:16;;;;;;;0.45;0.20;;;13.80;99.90;;;;;;4985647;28;20050;-71
2023/08/10 00:02:45;;;;;;;0.28;0.10;;;13.80;99.90;;;;;;4967755;28;20054;-71
2023/08/10 00:05:11;;;;;;;0.05;0.00;;;13.80;99.90;;;;;;4972583;28;20108;-69
2023/08/10 00:07:37;;;;;;;0.30;0.10;;;13.80;99.90;;;;;;4946209;28;20051;-70
2023/08/10 00:10:04;;;;;;;0.10;0.00;;;13.70;99.90;;;;;;4953564;28;20046;-70
2023/08/10 00:12:30;;;;;;;0.32;0.10;;;13.80;99.90;;;;;;4951332;28;20074;-69
2023/08/10 00:14:56;;;;;;;0.32;0.10;;;13.80;99.90;;;;;;4954070;28;20547;-70
2023/08/10 00:17:22;;;;;;;0.30;0.20;;;13.80;99.90;;;;;;4953675;28;20249;-69
2023/08/10 00:19:48;;;;;;;3.92;0.22;;;13.80;99.90;;;;;;4953295;28;20038;-70
2023/08/10 00:22:14;;;;;;;0.17;0.05;;;13.90;99.90;;;;;;4961551;28;20669;-70
2023/08/10 00:24:40;;;;;;;1.00;0.10;;;13.90;99.90;;;;;;4954707;28;20035;-70
2023/08/10 00:27:06;;;;;;;0.20;0.10;;;13.90;99.90;;;;;;4955481;28;20588;-70
2023/08/10 00:29:32;;;;;;;0.28;0.10;;;13.80;99.90;;;;;;4951235;28;20061;-70
2023/08/10 00:31:58;;;;;;;0.57;0.10;;;13.90;99.90;;;;;;4938680;28;20085;-70
2023/08/10 00:34:24;;;;;;;0.05;0.00;;;13.90;99.90;;;;;;4949574;28;20174;-70
2023/08/10 00:36:49;;;;;;;0.22;0.10;;;13.80;99.90;;;;;;4956239;28;20042;-70
2023/08/10 00:39:15;;;;;;;1.48;0.10;;;13.80;99.90;;;;;;4950917;28;20805;-71
2023/08/10 00:41:43;;;;;;;0.30;0.13;;;13.90;99.90;;;;;;4962647;28;20043;-70
2023/08/10 00:44:09;;;;;;;0.00;0.00;;;13.90;99.90;;;;;;4972543;28;20422;-70
2023/08/10 00:46:35;;;;;;;2.13;0.32;;;13.80;99.90;;;;;;4953746;28;20050;-70
2023/08/10 00:49:01;;;;;;;0.05;0.05;;;13.80;99.90;;;;;;4966848;28;20102;-70
2023/08/10 00:51:28;;;;;;;0.00;0.00;;;13.80;99.90;;;;;;4964033;28;20399;-70
2023/08/10 00:53:54;;;;;;;0.57;0.00;;;13.80;99.90;;;;;;4951316;28;20043;-70
2023/08/10 00:56:20;;;;;;;0.22;0.10;;;13.80;99.90;;;;;;4948351;28;20043;-71
2023/08/10 00:58:46;;;;;;;0.08;0.03;;;13.80;99.90;;;;;;4950106;28;20039;-73
2023/08/10 01:01:12;;;;;;;1.38;0.10;;;13.80;99.90;;;;;;4950563;28;20035;-70
2023/08/10 01:03:38;;;;;;;0.32;0.10;;;13.80;99.90;;;;;;4953075;28;20097;-71
2023/08/10 01:06:29;;;;;;;0.10;0.10;;;13.80;99.90;;;;;;4953380;28;20122;-70
2023/08/10 01:09:14;;;;;;;0.47;0.10;;;13.80;99.90;;;;;;4951448;28;20053;-70
2023/08/10 01:12:01;;;;;;;0.10;0.00;;;13.80;99.90;;;;;;4948582;28;20055;-70
2023/08/10 01:14:44;;;;;;;0.75;0.30;;;13.80;99.90;;;;;;4969396;28;20035;-70
2023/08/10 01:17:18;;;;;;;0.25;0.13;;;13.80;99.90;;;;;;4954567;28;20698;-70
2023/08/10 01:19:48;;;;;;;0.93;0.43;;;13.70;99.90;;;;;;4969644;28;20076;-70
2023/08/10 01:22:16;;;;;;;0.15;0.03;;;13.70;99.90;;;;;;4954912;28;20562;-70
2023/08/10 01:24:44;;;;;;;0.00;0.00;;;13.70;99.90;;;;;;4948468;28;20093;-70
2023/08/10 01:27:14;;;;;;;0.00;0.00;;;13.70;99.90;;;;;;4950033;28;20089;-70
2023/08/10 01:29:41;;;;;;;0.20;0.10;;;13.70;99.90;;;;;;4968875;28;20047;-70
2023/08/10 01:32:14;;;;;;;0.20;0.10;;;13.60;99.90;;;;;;4966793;28;20042;-70
2023/08/10 01:34:40;;;;;;;0.20;0.10;;;13.60;99.90;;;;;;4955319;28;20380;-70
2023/08/10 01:37:05;;;;;;;0.13;0.08;;;13.60;99.90;;;;;;4948482;28;20098;-70
2023/08/10 01:39:32;;;;;;;0.00;0.00;;;13.50;99.90;;;;;;4951078;28;20465;-70
2023/08/10 01:41:58;;;;;;;0.60;0.13;;;13.50;99.90;;;;;;4931744;29;20075;-70
2023/08/10 01:44:24;;;;;;;0.00;0.00;;;13.40;99.90;;;;;;4931948;29;20577;-70
2023/08/10 01:46:53;;;;;;;0.32;0.10;;;13.30;99.90;;;;;;4925885;29;20123;-70
2023/08/10 01:49:22;;;;;;;0.20;0.10;;;13.30;99.90;;;;;;4926899;29;20044;-70
2023/08/10 01:51:49;;;;;;;0.10;0.10;;;13.30;99.90;;;;;;4932680;29;20073;-70
2023/08/10 01:54:17;;;;;;;0.35;0.20;;;13.20;99.90;;;;;;4930963;29;20119;-71
2023/08/10 01:56:43;;;;;;;0.05;0.05;;;13.10;99.90;;;;;;4926896;29;20055;-71
2023/08/10 01:59:09;;;;;;;0.20;0.10;;;13.20;99.90;;;;;;4931387;29;20055;-71
2023/08/10 02:01:35;;;;;;;0.75;0.20;;;13.10;99.90;;;;;;4935508;29;20040;-71
2023/08/10 02:04:00;;;;;;;0.30;0.20;;;13.10;99.90;;;;;;4925621;29;20046;-71
2023/08/10 02:06:26;;;;;;;0.35;0.10;;;13.10;99.90;;;;;;4930291;29;20044;-70
2023/08/10 02:08:52;;;;;;;0.25;0.10;;;13.10;99.90;;;;;;4928723;29;20047;-70
2023/08/10 02:11:18;;;;;;;0.10;0.10;;;13.10;99.90;;;;;;4935551;29;20040;-70
2023/08/10 02:13:43;;;;;;;0.20;0.20;;;13.10;99.90;;;;;;4930829;29;20897;-70
2023/08/10 02:16:09;;;;;;;0.28;0.10;;;13.10;99.90;;;;;;4929914;29;20122;-70
2023/08/10 02:18:35;;;;;;;0.30;0.10;;;13.00;99.90;;;;;;4930279;29;20038;-70
2023/08/10 02:21:00;;;;;;;2.03;0.10;;;13.00;99.90;;;;;;4931941;29;20050;-70
2023/08/10 02:23:29;;;;;;;0.70;0.30;;;13.00;99.90;;;;;;4928121;29;20147;-70
2023/08/10 02:25:54;;;;;;;0.03;0.00;;;13.00;99.90;;;;;;4925135;29;20057;-70
2023/08/10 02:28:20;;;;;;;0.52;0.20;;;13.00;99.90;;;;;;4930889;29;20048;-70
2023/08/10 02:30:46;;;;;;;0.10;0.00;;;12.90;99.90;;;;;;4931181;29;20050;-70
2023/08/10 02:33:12;;;;;;;0.45;0.10;;;12.90;99.90;;;;;;4932375;29;20082;-70
2023/08/10 02:35:37;;;;;;;0.20;0.03;;;12.90;99.90;;;;;;4944843;29;20458;-70
2023/08/10 02:38:04;;;;;;;0.22;0.00;;;12.90;99.90;;;;;;4927768;29;20052;-70
2023/08/10 02:40:30;;;;;;;0.50;0.10;;;12.90;99.90;;;;;;4971869;28;20130;-70
2023/08/10 02:42:56;;;;;;;0.00;0.00;;;12.90;99.90;;;;;;4965020;28;20122;-71
2023/08/10 02:45:22;;;;;;;0.20;0.00;;;13.00;99.90;;;;;;4947018;29;20046;-70
2023/08/10 02:47:47;;;;;;;0.05;0.00;;;13.00;99.90;;;;;;4952970;28;20050;-71
2023/08/10 02:50:13;;;;;;;0.10;0.00;;;13.00;99.90;;;;;;4948541;29;20499;-71
2023/08/10 02:52:40;;;;;;;0.88;0.35;;;13.00;99.90;;;;;;4966579;28;20057;-71
2023/08/10 02:55:06;;;;;;;0.00;0.00;;;13.00;99.90;;;;;;4947792;29;20055;-71
2023/08/10 02:57:32;;;;;;;0.40;0.10;;;13.00;99.90;;;;;;4953021;29;20118;-70
2023/08/10 02:59:57;;;;;;;1.40;0.30;;;13.00;99.90;;;;;;4939269;29;20130;-71
2023/08/10 03:02:23;;;;;;;1.17;0.15;;;13.10;99.90;;;;;;4966346;28;20732;-70
2023/08/10 03:04:49;;;;;;;2.10;0.17;;;13.10;99.90;;;;;;4950543;28;20051;-70
2023/08/10 03:07:15;;;;;;;0.52;0.10;;;13.10;99.90;;;;;;4952796;28;20088;-70
2023/08/10 03:09:43;;;;;;;0.20;0.10;;;13.10;99.90;;;;;;4952516;29;20055;-71
2023/08/10 03:12:09;;;;;;;0.25;0.10;;;13.10;99.90;;;;;;4949617;29;20126;-71
2023/08/10 03:14:35;;;;;;;0.00;0.00;;;13.10;99.90;;;;;;4964096;28;20119;-70
2023/08/10 03:17:01;;;;;;;0.45;0.10;;;13.10;99.90;;;;;;4944993;29;20039;-71
2023/08/10 03:19:26;;;;;;;1.02;0.00;;;13.20;99.90;;;;;;4951805;29;20050;-71
2023/08/10 03:21:52;;;;;;;1.80;0.03;;;13.20;99.90;;;;;;4951065;28;20167;-70
2023/08/10 03:24:18;;;;;;;0.38;0.17;;;13.20;99.90;;;;;;4952809;28;20047;-71
2023/08/10 03:26:44;;;;;;;0.00;0.00;;;13.20;99.90;;;;;;4952789;29;20599;-70
2023/08/10 03:29:09;;;;;;;0.03;0.00;;;13.20;99.90;;;;;;4952608;28;20099;-70
2023/08/10 03:31:35;;;;;;;0.25;0.10;;;13.20;99.90;;;;;;4960406;28;20154;-71
2023/08/10 03:34:01;;;;;;;0.28;0.00;;;13.30;99.90;;;;;;4950541;29;20039;-70
2023/08/10 03:36:26;;;;;;;0.25;0.00;;;13.20;99.90;;;;;;4953941;29;20075;-70
2023/08/10 03:38:52;;;;;;;0.20;0.10;;;13.30;99.90;;;;;;4950626;29;20255;-70
2023/08/10 03:41:18;;;;;;;1.45;0.10;;;13.30;99.90;;;;;;4962551;28;20060;-70
2023/08/10 03:43:43;;;;;;;0.30;0.20;;;13.30;99.90;;;;;;4950926;29;20050;-71
2023/08/10 03:46:09;;;;;;;0.30;0.10;;;13.30;99.90;;;;;;4953258;29;20665;-70
2023/08/10 03:48:35;;;;;;;0.95;0.30;;;13.30;99.90;;;;;;4965871;28;20051;-70
2023/08/10 03:51:01;;;;;;;0.65;0.32;;;13.40;99.90;;;;;;4952676;29;20399;-70
2023/08/10 03:53:26;;;;;;;0.10;0.10;;;13.40;99.90;;;;;;4965739;28;20044;-70
2023/08/10 03:55:52;;;;;;;0.50;0.10;;;13.40;99.90;;;;;;4953632;28;20662;-70
2023/08/10 03:58:18;;;;;;;0.00;0.00;;;13.40;99.90;;;;;;4950638;28;20051;-70
2023/08/10 04:00:47;;;;;;;1.13;0.10;;;13.40;99.90;;;;;;4948104;29;20031;-70
2023/08/10 04:03:12;;;;;;;0.10;0.10;;;13.50;99.90;;;;;;4966452;28;20066;-70
2023/08/10 04:05:39;;;;;;;0.20;0.20;;;13.50;99.90;;;;;;4954236;28;20080;-71
2023/08/10 04:08:07;;;;;;;0.45;0.08;;;13.50;99.90;;;;;;4950015;29;20039;-70
2023/08/10 04:10:34;;;;;;;0.10;0.08;;;13.50;99.90;;;;;;4950563;29;20058;-70
2023/08/10 04:13:00;;;;;;;0.00;0.00;;;13.50;99.90;;;;;;4949788;29;20051;-70
2023/08/10 04:15:26;;;;;;;0.63;0.30;;;13.50;99.90;;;;;;4940748;29;20050;-70
2023/08/10 04:17:52;;;;;;;0.13;0.03;;;13.50;99.90;;;;;;4945810;29;20420;-70
2023/08/10 04:20:17;;;;;;;0.35;0.05;;;13.50;99.90;;;;;;4951917;29;20043;-70
2023/08/10 04:22:43;;;;;;;0.43;0.20;;;13.50;99.90;;;;;;4950791;29;20047;-70
2023/08/10 04:25:09;;;;;;;0.20;0.10;;;13.50;99.90;;;;;;4951639;29;20546;-70
2023/08/10 04:27:35;;;;;;;0.10;0.00;;;13.50;99.90;;;;;;4962050;28;20549;-70
2023/08/10 04:30:03;;;;;;;0.22;0.10;;;13.50;99.90;;;;;;4953485;28;20035;-70
2023/08/10 04:32:29;;;;;;;0.10;0.10;;;13.50;99.90;;;;;;4965108;28;20387;-70
2023/08/10 04:34:55;;;;;;;0.47;0.22;;;13.60;99.90;;;;;;4953304;28;20225;-71
2023/08/10 04:37:20;;;;;;;0.55;0.20;;;13.60;99.90;;;;;;4950158;29;20537;-70
2023/08/10 04:39:46;;;;;;;0.10;0.00;;;13.60;99.90;;;;;;4953255;29;20082;-71
2023/08/10 04:42:14;;;;;;;1.00;0.20;;;13.60;99.90;;;;;;4967569;28;20082;-71
2023/08/10 04:44:39;;;;;;;0.32;0.05;;;13.60;99.90;;;;;;4951549;29;20031;-71
2023/08/10 04:47:05;;;;;;;0.13;0.00;;;13.70;99.90;;;;;;4949446;29;20155;-71
2023/08/10 04:49:31;;;;;;;0.05;0.03;;;13.70;99.90;;;;;;4948404;28;20050;-71
2023/08/10 04:51:57;;;;;;;0.15;0.00;;;13.70;99.90;;;;;;4947550;29;20051;-71
2023/08/10 04:54:23;;;;;;;0.20;0.10;;;13.70;99.90;;;;;;4952285;29;20049;-71
2023/08/10 04:56:49;;;;;;;0.22;0.00;;;13.70;99.90;;;;;;4950774;29;20031;-70
2023/08/10 04:59:15;;;;;;;2.75;0.10;;;13.70;99.90;;;;;;4948621;28;20554;-71
2023/08/10 05:01:41;;;;;;;0.20;0.10;;;13.70;99.90;;;;;;4950681;29;20039;-71
2023/08/10 05:04:07;;;;;;;0.55;0.17;;;13.70;99.90;;;;;;4951133;29;20061;-70
2023/08/10 05:06:34;;;;;;;0.65;0.10;;;13.70;99.90;;;;;;4950825;29;20099;-70
2023/08/10 05:09:01;;;;;;;0.08;0.05;;;13.80;99.90;;;;;;4949617;28;20150;-70
2023/08/10 05:11:27;;;;;;;0.00;0.00;;;13.80;99.90;;;;;;4950806;28;20062;-70
2023/08/10 05:13:53;;;;;;;0.90;0.20;;;13.80;99.90;;;;;;4949013;29;20248;-70
2023/08/10 05:16:18;;;;;;;0.32;0.00;;;13.80;99.90;;;;;;4946469;29;20044;-70
2023/08/10 05:18:44;;;;;;;0.30;0.10;;;13.80;99.90;;;;;;4941166;29;20032;-70
2023/08/10 05:21:10;;;;;;;0.30;0.10;;;13.80;99.90;;;;;;4964012;28;20043;-71
2023/08/10 05:23:37;;;;;;;0.45;0.00;;;13.90;99.90;;;;;;4952098;28;20050;-71
2023/08/10 05:26:03;;;;;;;0.63;0.20;;;13.90;99.90;;;;;;4950007;29;20129;-71
2023/08/10 05:28:28;;;;;;;0.00;0.00;;;13.90;99.90;;;;;;4940434;29;20138;-71
2023/08/10 05:30:54;;;;;;;0.13;0.10;;;14.00;99.90;;;;;;4949013;29;20042;-71
2023/08/10 05:33:20;;;;;;;1.55;0.20;;;14.00;99.90;;;;;;4951264;29;20051;-70
2023/08/10 05:35:46;;;;;;;0.55;0.10;;;14.10;99.90;;;;;;4950973;29;20114;-71
2023/08/10 05:38:12;;;;;;;0.90;0.10;;;14.10;99.90;;;;;;4949635;28;20067;-71
2023/08/10 05:40:38;;;;;;;0.10;0.10;;;14.10;99.90;;;;;;4947734;29;20136;-71
2023/08/10 05:43:04;;;;;;;1.20;0.57;;;14.10;99.90;;;;;;4965806;28;20146;-71
2023/08/10 05:45:31;;;;;;;0.25;0.05;;;14.20;99.90;;;;;;4961794;28;20051;-70
2023/08/10 05:47:56;;;;;;;0.20;0.10;;;14.30;99.90;;;;;;4964385;28;20054;-71
2023/08/10 05:50:22;;;;;;;0.52;0.00;;;14.40;99.90;;;;;;4951332;29;20043;-71
2023/08/10 05:52:48;;;;;;;0.00;0.00;;;14.50;99.90;;;;;;4950206;29;20079;-71
2023/08/10 05:55:14;;;;;;;0.30;0.10;;;14.60;99.90;;;;;;4953452;28;20150;-71
2023/08/10 05:57:44;;;;;;;0.10;0.10;;;14.70;99.90;;;;;;4956309;28;20046;-70
2023/08/10 06:00:13;;;;;;;0.32;0.20;;;14.80;99.90;;;;;;4950032;28;20131;-71
2023/08/10 06:02:40;;;;;;;0.47;0.35;;;14.90;99.90;;;;;;4950174;29;20047;-71
2023/08/10 06:05:06;;;;;;;0.20;0.10;;;15.00;99.90;;;;;;4936208;29;20047;-71
2023/08/10 06:07:33;;;;;;;0.85;0.20;;;15.00;99.90;;;;;;4957785;28;20138;-71
2023/08/10 06:09:59;;;;;;;0.20;0.08;;;15.00;99.90;;;;;;4953133;29;20458;-70
2023/08/10 06:12:25;;;;;;;0.10;0.10;;;15.00;99.90;;;;;;4943992;29;20043;-69
2023/08/10 06:14:51;;;;;;;0.08;0.08;;;15.00;99.90;;;;;;4948850;29;20416;-69
2023/08/10 06:17:16;;;;;;;0.20;0.10;;;15.00;99.90;;;;;;4944930;29;20031;-69
2023/08/10 06:19:51;;;;;;;0.13;0.13;;;15.00;99.90;;;;;;4943182;29;20045;-68
2023/08/10 06:22:17;;;;;;;;;;;15.20;99.90;;;;;;4948843;28;20635;-69
2023/08/10 06:24:43;;;;;;;0.43;0.15;;;15.30;99.90;;;;;;4962493;28;19922;-69
2023/08/10 06:27:09;;;;;;;1.65;0.20;;;15.40;99.90;;;;;;4968607;28;20055;-69
2023/08/10 06:29:35;;;;;;;0.47;0.28;;;15.50;99.90;;;;;;4945566;29;20047;-69
2023/08/10 06:32:10;;;;;;;0.15;0.05;;;15.60;99.90;;;;;;4940711;29;20098;-68
2023/08/10 06:34:36;;;;;;;0.32;0.10;;;15.90;99.90;;;;;;4963324;28;20098;-69
2023/08/10 06:37:03;;;;;;;0.10;0.10;;;16.10;99.90;;;;;;4948465;28;20089;-69
2023/08/10 06:39:29;;;;;;;0.22;0.00;;;16.40;99.90;;;;;;4948624;28;20139;-71
2023/08/10 06:41:54;;;;;;;0.05;0.05;;;16.50;99.90;;;;;;4948140;28;20559;-71
2023/08/10 06:44:20;;;;;;;0.20;0.10;;;16.70;99.90;;;;;;4946624;28;20117;-71
2023/08/10 06:46:46;;;;;;;0.65;0.10;;;16.80;99.90;;;;;;4944680;28;20043;-71
2023/08/10 06:49:12;;;;;;;0.00;0.00;;;16.80;99.90;;;;;;4949386;28;20039;-71
2023/08/10 06:51:38;;;;;;;0.28;0.10;;;16.90;99.90;;;;;;4952889;28;20130;-71
2023/08/10 06:54:04;;;;;;;0.00;0.00;;;17.00;99.90;;;;;;4952730;28;20463;-71
2023/08/10 06:56:30;;;;;;;0.30;0.00;;;17.10;99.90;;;;;;4950293;28;20050;-71
2023/08/10 06:58:55;;;;;;;1.65;0.00;;;17.20;99.90;;;;;;4961733;28;20225;-71
2023/08/10 07:01:21;;;;;;;0.00;0.00;;;17.40;99.90;;;;;;4964923;28;20530;-71
2023/08/10 07:03:47;;;;;;;0.00;0.00;;;17.50;99.90;;;;;;4951756;28;20353;-71
2023/08/10 07:06:13;;;;;;;0.10;0.00;;;17.50;99.90;;;;;;4948442;28;20090;-71
2023/08/10 07:08:39;;;;;;;0.43;0.00;;;17.60;99.90;;;;;;4966648;28;20042;-71
2023/08/10 07:11:05;;;;;;;0.00;0.00;;;17.60;99.90;;;;;;4952200;28;20186;-71
2023/08/10 07:13:31;;;;;;;0.00;0.00;;;17.70;99.90;;;;;;4962507;28;20067;-71
2023/08/10 07:15:57;;;;;;;0.50;0.00;;;17.60;99.90;;;;;;4946310;28;20035;-71
2023/08/10 07:18:22;;;;;;;0.00;0.00;;;17.80;99.90;;;;;;4947995;28;20085;-71
2023/08/10 07:20:48;;;;;;;0.85;0.10;;;17.90;99.90;;;;;;4947407;28;20087;-71
2023/08/10 07:23:17;;;;;;;0.00;0.00;;;18.00;99.90;;;;;;4950870;28;20602;-71
2023/08/10 07:25:46;;;;;;;0.00;0.00;;;18.00;99.90;;;;;;4950387;28;20034;-71
2023/08/10 07:28:12;;;;;;;1.98;0.00;;;18.10;99.90;;;;;;4948236;28;20123;-71
2023/08/10 07:30:38;;;;;;;0.00;0.00;;;18.30;99.90;;;;;;4953871;28;20039;-71
2023/08/10 07:33:04;;;;;;;0.00;0.00;;;18.50;99.90;;;;;;4947805;28;20070;-72
2023/08/10 07:35:30;;;;;;;1.75;0.00;;;18.60;99.90;;;;;;4943063;28;20035;-71
2023/08/10 07:37:56;;;;;;;0.00;0.00;;;18.80;99.90;;;;;;4950307;28;20591;-71
2023/08/10 07:40:21;;;;;;;0.00;0.00;;;18.80;99.90;;;;;;4942291;29;20047;-71
2023/08/10 07:42:47;;;;;;;0.03;0.03;;;18.90;99.90;;;;;;4953206;28;20059;-71
2023/08/10 07:45:13;;;;;;;2.83;0.00;;;18.90;99.90;;;;;;4950798;29;20047;-71
2023/08/10 07:47:39;;;;;;;0.05;0.05;;;18.90;99.90;;;;;;4943062;29;20058;-71
2023/08/10 07:50:06;;;;;;;0.70;0.08;;;18.90;99.90;;;;;;4943288;29;20127;-71
2023/08/10 07:52:31;;;;;;;0.00;0.00;;;18.70;99.90;;;;;;4969603;28;20054;-71
2023/08/10 07:54:57;;;;;;;0.15;0.10;;;18.70;99.90;;;;;;4948071;29;20049;-71
2023/08/10 07:57:23;;;;;;;1.45;0.10;;;18.60;99.90;;;;;;4948807;29;20083;-71
2023/08/10 07:59:48;;;;;;;0.10;0.00;;;18.60;99.90;;;;;;4943047;29;20039;-70
2023/08/10 08:02:15;;;;;;;0.73;0.22;;;18.60;99.90;;;;;;4959978;28;20086;-71
2023/08/10 08:04:40;;;;;;;0.32;0.05;;;18.60;99.90;;;;;;4946412;28;20044;-71
2023/08/10 08:07:06;;;;;;;0.00;0.00;;;18.50;99.90;;;;;;4948809;29;20058;-71
2023/08/10 08:09:32;;;;;;;0.20;0.00;;;18.50;99.90;;;;;;4959453;28;20174;-71
2023/08/10 08:11:57;;;;;;;0.00;0.00;;;18.50;99.90;;;;;;4963955;28;20102;-71
2023/08/10 08:14:23;;;;;;;0.00;0.00;;;18.40;99.90;;;;;;4951474;29;20484;-71
2023/08/10 08:16:49;;;;;;;0.20;0.00;;;18.40;99.90;;;;;;4947674;29;20040;-71
2023/08/10 08:19:14;;;;;;;0.00;0.00;;;18.50;99.90;;;;;;4949613;29;20467;-71
2023/08/10 08:21:40;;;;;;;0.40;0.20;;;18.50;99.90;;;;;;4953446;28;20043;-71
2023/08/10 08:24:06;;;;;;;0.10;0.00;;;18.50;99.90;;;;;;4947811;29;20046;-71
2023/08/10 08:26:33;;;;;;;0.00;0.00;;;18.50;99.90;;;;;;4949181;28;20040;-71
2023/08/10 08:28:59;;;;;;;0.20;0.10;;;18.50;99.90;;;;;;4952448;29;20047;-71
2023/08/10 08:31:25;;;;;;;0.70;0.03;;;18.60;99.90;;;;;;4942626;28;20085;-71
2023/08/10 08:33:51;;;;;;;0.82;0.10;;;18.60;99.90;;;;;;4951998;29;20059;-71
2023/08/10 08:36:18;;;;;;;0.52;0.10;;;18.60;99.90;;;;;;4947980;29;20098;-71
2023/08/10 08:38:43;;;;;;;0.15;0.00;;;18.60;99.90;;;;;;4949743;29;20039;-71
2023/08/10 08:41:10;;;;;;;0.30;0.00;;;18.60;99.90;;;;;;4968107;28;20533;-71
2023/08/10 08:43:37;;;;;;;0.05;0.00;;;18.60;99.90;;;;;;4944718;28;20094;-71
2023/08/10 08:46:05;;;;;;;1.13;0.10;;;18.50;99.90;;;;;;4949064;28;20061;-71
2023/08/10 08:48:31;;;;;;;0.00;0.00;;;18.50;99.90;;;;;;4953201;28;20083;-71
2023/08/10 08:50:57;;;;;;;0.60;0.10;;;18.40;99.90;;;;;;4954799;28;20815;-71
2023/08/10 08:53:24;;;;;;;0.00;0.00;;;18.40;99.90;;;;;;4954802;28;20042;-71
2023/08/10 08:55:51;;;;;;;0.10;0.00;;;18.40;99.90;;;;;;4949305;28;20054;-71
2023/08/10 08:58:17;;;;;;;0.10;0.00;;;18.30;99.90;;;;;;4954184;28;20031;-71
2023/08/10 09:00:54;;;;;;;0.00;0.00;;;18.30;99.90;;;;;;4955046;28;20046;-71
2023/08/10 09:03:24;;;;;;;2.08;0.00;;;18.20;99.90;;;;;;4961915;28;20050;-71
2023/08/10 09:05:51;;;;;;;0.00;0.00;;;18.20;99.90;;;;;;4951179;28;20073;-71
2023/08/10 09:08:18;;;;;;;0.08;0.08;;;18.20;99.90;;;;;;4956552;28;20270;-71
2023/08/10 09:10:46;;;;;;;0.00;0.00;;;18.10;99.90;;;;;;4953574;28;20145;-71
2023/08/10 09:13:17;;;;;;;0.10;0.03;;;18.10;99.90;;;;;;4968264;28;20491;-71
2023/08/10 09:15:43;;;;;;;0.20;0.00;;;18.10;99.90;;;;;;4953995;28;20046;-71
2023/08/10 09:18:08;;;;;;;0.00;0.00;;;18.10;99.90;;;;;;4951135;28;20042;-71
2023/08/10 09:20:34;;;;;;;0.10;0.05;;;18.10;99.90;;;;;;4967289;28;20469;-71
2023/08/10 09:23:01;;;;;;;0.00;0.00;;;18.10;99.90;;;;;;4950188;28;20488;-71
2023/08/10 09:25:38;;;;;;;0.10;0.00;;;18.10;99.90;;;;;;4952976;28;20496;-71
2023/08/10 09:28:11;;;;;;;0.03;0.00;;;18.10;99.90;;;;;;4965324;28;20054;-71
2023/08/10 09:30:37;;;;;;;0.15;0.00;;;18.10;99.90;;;;;;4951700;28;20042;-71
2023/08/10 09:33:03;;;;;;;0.00;0.00;;;18.20;99.90;;;;;;4949009;28;20064;-71
2023/08/10 09:35:31;;;;;;;2.05;0.10;;;18.20;99.90;;;;;;4951360;28;20166;-71
2023/08/10 09:38:04;;;;;;;0.00;0.00;;;18.20;99.90;;;;;;4969051;28;20039;-71
2023/08/10 09:40:30;;;;;;;0.10;0.05;;;18.20;99.90;;;;;;4968692;28;20059;-71
2023/08/10 09:42:56;;;;;;;0.00;0.00;;;18.10;99.90;;;;;;4949061;28;20443;-71
2023/08/10 09:45:22;;;;;;;0.17;0.10;;;18.10;99.90;;;;;;4951818;28;20049;-71
2023/08/10 09:47:48;;;;;;;0.32;0.13;;;18.10;99.90;;;;;;4954175;28;20400;-71
2023/08/10 09:50:15;;;;;;;0.32;0.03;;;18.20;99.90;;;;;;4952742;28;20047;-71
2023/08/10 09:52:42;;;;;;;0.00;0.00;;;18.10;99.90;;;;;;4949789;28;20061;-71
2023/08/10 09:55:10;;;;;;;0.00;0.00;;;18.20;99.90;;;;;;4951327;28;20078;-71
2023/08/10 09:57:43;;;;;;;0.40;0.10;;;18.20;99.90;;;;;;4966347;28;20043;-71
2023/08/10 10:00:16;;;;;;;0.00;0.00;;;18.20;99.90;;;;;;4965198;28;20459;-71
2023/08/10 10:02:42;;;;;;;0.30;0.10;;;18.20;99.90;;;;;;4935090;28;20337;-71
2023/08/10 10:05:08;;;;;;;0.00;0.00;;;18.10;99.90;;;;;;4951174;28;20051;-71
2023/08/10 10:07:35;;;;;;;1.00;0.13;;;18.10;99.90;;;;;;4969028;28;20065;-71
2023/08/10 10:10:01;;;;;;;0.65;0.15;;;18.10;99.90;;;;;;4960348;28;20054;-71
2023/08/10 10:12:34;;;;;;;0.10;0.00;;;18.10;99.90;;;;;;4966398;28;20039;-71
2023/08/10 10:15:01;;;;;;;0.20;0.10;;;18.10;99.90;;;;;;4941709;28;20055;-71
2023/08/10 10:17:26;;;;;;;0.05;0.00;;;18.10;99.90;;;;;;4966632;28;20255;-71
2023/08/10 10:19:53;;;;;;;1.55;0.05;;;18.10;99.90;;;;;;4964597;28;20081;-71
2023/08/10 10:22:20;;;;;;;0.25;0.10;;;18.10;99.90;;;;;;4948765;28;20043;-71
2023/08/10 10:24:47;;;;;;;0.28;0.00;;;18.10;99.90;;;;;;4952610;28;20101;-70
2023/08/10 10:27:13;;;;;;;0.00;0.00;;;18.10;99.90;;;;;;4951894;28;20038;-70
2023/08/10 10:29:56;;;;;;;0.00;0.00;;;18.20;99.90;;;;;;4952780;28;20130;-70
2023/08/10 10:32:23;;;;;;;0.20;0.00;;;18.20;99.90;;;;;;4951916;28;20496;-71
2023/08/10 10:34:50;;;;;;;0.17;0.00;;;18.20;99.90;;;;;;4971125;28;20444;-71
2023/08/10 10:37:28;;;;;;;1.98;0.20;;;18.20;99.90;;;;;;4952486;28;20391;-71
2023/08/10 10:40:15;;;;;;;0.10;0.08;;;18.20;99.90;;;;;;4961619;28;20058;-70
2023/08/10 10:43:02;;;;;;;0.30;0.10;;;18.30;99.90;;;;;;4949273;28;20051;-71
2023/08/10 10:45:33;;;;;;;0.25;0.00;;;18.30;99.90;;;;;;4948393;28;20079;-70
2023/08/10 10:47:59;;;;;;;0.28;0.13;;;18.20;99.90;;;;;;4950868;28;20503;-70
2023/08/10 10:50:29;;;;;;;0.38;0.10;;;18.30;99.90;;;;;;4945366;28;20089;-70
2023/08/10 10:53:15;;;;;;;0.13;0.03;;;18.20;99.90;;;;;;4951898;28;20055;-70
2023/08/10 10:55:43;;;;;;;0.00;0.00;;;18.20;99.90;;;;;;4968974;28;20118;-70
2023/08/10 10:58:13;;;;;;;0.43;0.28;;;18.30;99.90;;;;;;4950811;28;20042;-70
2023/08/10 11:00:41;;;;;;;0.40;0.10;;;18.30;99.90;;;;;;4948935;28;20488;-70
2023/08/10 11:03:13;;;;;;;0.55;0.20;;;18.40;99.90;;;;;;4952474;28;20042;-72
2023/08/10 11:05:39;;;;;;;0.75;0.10;;;18.50;99.90;;;;;;4952494;28;20042;-70
2023/08/10 11:08:06;;;;;;;0.38;0.08;;;18.50;99.90;;;;;;4953628;28;20141;-71
2023/08/10 11:10:36;;;;;;;0.45;0.03;;;18.50;99.90;;;;;;4970315;28;20049;-71
2023/08/10 11:13:11;;;;;;;0.10;0.10;;;18.50;99.90;;;;;;4954944;28;20049;-71
2023/08/10 11:15:37;;;;;;;0.28;0.10;;;18.50;99.90;;;;;;4953114;28;20459;-71
2023/08/10 11:18:12;;;;;;;0.00;0.00;;;18.40;99.90;;;;;;4954873;28;20121;-71
2023/08/10 11:20:45;;;;;;;0.35;0.20;;;18.50;99.90;;;;;;4966513;28;20042;-71
2023/08/10 11:23:12;;;;;;;0.32;0.15;;;18.40;99.90;;;;;;4959843;28;20113;-71
2023/08/10 11:25:51;;;;;;;0.00;0.00;;;18.50;99.90;;;;;;4953078;28;20105;-71
2023/08/10 11:28:19;;;;;;;1.30;0.20;;;18.50;99.90;;;;;;4974725;28;20046;-71
2023/08/10 11:30:45;;;;;;;1.00;0.00;;;18.50;99.90;;;;;;4954062;28;20072;-71
2023/08/10 11:33:11;;;;;;;0.10;0.10;;;18.50;99.90;;;;;;4956448;28;20375;-71
2023/08/10 11:35:37;;;;;;;0.30;0.10;;;18.60;99.90;;;;;;4939856;28;20035;-71
2023/08/10 11:38:05;;;;;;;0.75;0.10;;;18.70;99.90;;;;;;4952174;28;20457;-71
2023/08/10 11:40:30;;;;;;;0.38;0.15;;;18.70;99.90;;;;;;4959527;28;20074;-71
2023/08/10 11:43:07;;;;;;;0.00;0.00;;;18.80;99.90;;;;;;4947921;28;20051;-71
2023/08/10 11:45:35;;;;;;;1.65;0.15;;;19.00;99.90;;;;;;4969357;28;20050;-71
2023/08/10 11:48:06;;;;;;;0.40;0.20;;;19.00;99.90;;;;;;4953682;28;20142;-71
2023/08/10 11:50:32;;;;;;;0.50;0.10;;;19.00;99.90;;;;;;4956396;28;20034;-71
2023/08/10 11:53:11;;;;;;;0.22;0.05;;;19.20;99.90;;;;;;4954887;28;20062;-71
2023/08/10 11:55:57;;;;;;;0.25;0.10;;;19.30;99.90;;;;;;4956799;28;20049;-71
2023/08/10 11:58:24;;;;;;;0.10;0.10;;;19.40;99.90;;;;;;4945707;28;20055;-71
2023/08/10 12:00:53;;;;;;;1.65;0.20;;;19.60;99.90;;;;;;4955983;28;20142;-71
2023/08/10 12:03:25;;;;;;;0.00;0.00;;;19.70;99.90;;;;;;4967098;28;20051;-71
2023/08/10 12:05:56;;;;;;;0.52;0.10;;;19.80;99.90;;;;;;4956258;28;20054;-71
2023/08/10 12:08:26;;;;;;;0.00;0.00;;;20.00;99.90;;;;;;4964567;28;20456;-71
2023/08/10 12:11:01;;;;;;;0.30;0.10;;;20.20;99.90;;;;;;4955006;28;20058;-71
2023/08/10 12:13:27;;;;;;;0.00;0.00;;;20.40;99.90;;;;;;4952995;28;20051;-71
2023/08/10 12:15:54;;;;;;;0.13;0.10;;;20.60;99.90;;;;;;4949426;28;20590;-71
2023/08/10 12:18:21;;;;;;;0.00;0.00;;;20.70;99.90;;;;;;4970159;28;20098;-71
2023/08/10 12:20:49;;;;;;;0.22;0.10;;;20.70;99.90;;;;;;4951002;28;20039;-71
2023/08/10 12:23:15;;;;;;;0.55;0.10;;;20.70;99.90;;;;;;4967908;28;20051;-71
2023/08/10 12:25:46;;;;;;;1.50;0.30;;;20.70;99.90;;;;;;4949531;28;20047;-71
2023/08/10 12:28:12;;;;;;;0.10;0.03;;;20.70;99.90;;;;;;4953205;28;20039;-71
2023/08/10 12:30:39;;;;;;;0.00;0.00;;;20.70;99.90;;;;;;4951847;28;20050;-71
2023/08/10 12:33:11;;;;;;;0.70;0.30;;;20.70;99.90;;;;;;4950778;28;20091;-72
2023/08/10 12:35:38;;;;;;;1.65;0.10;;;20.70;99.90;;;;;;4948675;28;20050;-72
2023/08/10 12:38:05;;;;;;;0.95;0.20;;;20.80;99.90;;;;;;4942088;28;20496;-72
2023/08/10 12:40:31;;;;;;;0.45;0.20;;;20.80;99.90;;;;;;4940983;29;20097;-72
2023/08/10 12:42:58;;;;;;;0.20;0.10;;;20.90;99.90;;;;;;4933337;29;20121;-72
2023/08/10 12:45:25;;;;;;;0.40;0.20;;;20.80;99.90;;;;;;4946870;29;20058;-72
2023/08/10 12:47:50;;;;;;;0.13;0.10;;;20.90;99.90;;;;;;4948377;29;20069;-72